sensor_id;sensor_type;location;lat;lon;timestamp;P1;durP1;ratioP1;P2;durP2;ratioP2
83247;SDS011;73465;51.038;7.052;2024-01-25T00:00:23;39.85;;;6.00;;
83247;SDS011;73465;51.038;7.052;2024-01-25T00:02:48;40.13;;;5.95;;
83247;SDS011;73465;51.038;7.052;2024-01-25T00:05:17;35.58;;;5.60;;
83247;SDS011;73465;51.038;7.052;2024-01-25T00:07:46;49.40;;;5.65;;
83247;SDS011;73465;51.038;7.052;2024-01-25T00:10:16;40.92;;;5.82;;
83247;SDS011;73465;51.038;7.052;2024-01-25T00:12:42;46.08;;;5.13;;
83247;SDS011;73465;51.038;7.052;2024-01-25T00:15:10;51.97;;;7.35;;
83247;SDS011;73465;51.038;7.052;2024-01-25T00:17:36;37.42;;;6.13;;
83247;SDS011;73465;51.038;7.052;2024-01-25T00:20:02;36.55;;;5.50;;
83247;SDS011;73465;51.038;7.052;2024-01-25T00:22:28;56.33;;;6.25;;
83247;SDS011;73465;51.038;7.052;2024-01-25T00:24:54;40.92;;;7.32;;
83247;SDS011;73465;51.038;7.052;2024-01-25T00:27:19;44.35;;;5.85;;
83247;SDS011;73465;51.038;7.052;2024-01-25T00:29:44;47.53;;;5.90;;
83247;SDS011;73465;51.038;7.052;2024-01-25T00:32:10;40.20;;;5.60;;
83247;SDS011;73465;51.038;7.052;2024-01-25T00:34:35;52.70;;;7.78;;
83247;SDS011;73465;51.038;7.052;2024-01-25T00:37:01;51.28;;;6.13;;
83247;SDS011;73465;51.038;7.052;2024-01-25T00:39:27;40.35;;;6.18;;
83247;SDS011;73465;51.038;7.052;2024-01-25T00:41:52;36.85;;;5.28;;
83247;SDS011;73465;51.038;7.052;2024-01-25T00:44:33;49.88;;;6.47;;
83247;SDS011;73465;51.038;7.052;2024-01-25T00:46:58;40.97;;;6.68;;
83247;SDS011;73465;51.038;7.052;2024-01-25T00:49:24;38.75;;;5.35;;
83247;SDS011;73465;51.038;7.052;2024-01-25T00:51:50;42.70;;;5.93;;
83247;SDS011;73465;51.038;7.052;2024-01-25T00:54:27;40.50;;;6.10;;
83247;SDS011;73465;51.038;7.052;2024-01-25T00:56:53;42.33;;;5.28;;
83247;SDS011;73465;51.038;7.052;2024-01-25T00:59:19;45.63;;;5.95;;
83247;SDS011;73465;51.038;7.052;2024-01-25T01:01:52;40.95;;;5.35;;
83247;SDS011;73465;51.038;7.052;2024-01-25T01:04:20;37.47;;;5.95;;
83247;SDS011;73465;51.038;7.052;2024-01-25T01:06:46;50.88;;;6.85;;
83247;SDS011;73465;51.038;7.052;2024-01-25T01:09:13;47.80;;;7.18;;
83247;SDS011;73465;51.038;7.052;2024-01-25T01:11:39;35.10;;;5.63;;
83247;SDS011;73465;51.038;7.052;2024-01-25T01:14:04;45.63;;;6.70;;
83247;SDS011;73465;51.038;7.052;2024-01-25T01:16:30;39.30;;;5.20;;
83247;SDS011;73465;51.038;7.052;2024-01-25T01:18:57;39.72;;;6.50;;
83247;SDS011;73465;51.038;7.052;2024-01-25T01:21:32;36.60;;;5.13;;
83247;SDS011;73465;51.038;7.052;2024-01-25T01:24:01;40.97;;;5.68;;
83247;SDS011;73465;51.038;7.052;2024-01-25T01:26:27;48.17;;;6.47;;
83247;SDS011;73465;51.038;7.052;2024-01-25T01:28:52;46.72;;;6.38;;
83247;SDS011;73465;51.038;7.052;2024-01-25T01:31:18;47.05;;;6.25;;
83247;SDS011;73465;51.038;7.052;2024-01-25T01:33:44;43.13;;;6.38;;
83247;SDS011;73465;51.038;7.052;2024-01-25T01:36:09;39.80;;;5.88;;
83247;SDS011;73465;51.038;7.052;2024-01-25T01:38:35;46.30;;;5.20;;
83247;SDS011;73465;51.038;7.052;2024-01-25T01:41:00;38.85;;;5.40;;
83247;SDS011;73465;51.038;7.052;2024-01-25T01:43:26;42.63;;;6.35;;
83247;SDS011;73465;51.038;7.052;2024-01-25T01:45:52;38.25;;;6.30;;
83247;SDS011;73465;51.038;7.052;2024-01-25T01:48:21;38.35;;;5.70;;
83247;SDS011;73465;51.038;7.052;2024-01-25T01:50:46;41.00;;;5.63;;
83247;SDS011;73465;51.038;7.052;2024-01-25T01:53:12;42.78;;;5.88;;
83247;SDS011;73465;51.038;7.052;2024-01-25T01:55:41;34.42;;;6.20;;
83247;SDS011;73465;51.038;7.052;2024-01-25T01:58:06;35.38;;;4.95;;
83247;SDS011;73465;51.038;7.052;2024-01-25T02:00:33;36.42;;;6.35;;
83247;SDS011;73465;51.038;7.052;2024-01-25T02:02:59;34.72;;;5.65;;
83247;SDS011;73465;51.038;7.052;2024-01-25T02:05:25;50.92;;;6.43;;
83247;SDS011;73465;51.038;7.052;2024-01-25T02:07:51;46.90;;;6.57;;
83247;SDS011;73465;51.038;7.052;2024-01-25T02:10:17;41.00;;;5.38;;
83247;SDS011;73465;51.038;7.052;2024-01-25T02:12:50;34.78;;;4.90;;
83247;SDS011;73465;51.038;7.052;2024-01-25T02:15:16;49.35;;;5.82;;
83247;SDS011;73465;51.038;7.052;2024-01-25T02:17:42;33.88;;;5.15;;
83247;SDS011;73465;51.038;7.052;2024-01-25T02:20:08;46.13;;;5.38;;
83247;SDS011;73465;51.038;7.052;2024-01-25T02:22:34;39.13;;;6.10;;
83247;SDS011;73465;51.038;7.052;2024-01-25T02:24:59;54.30;;;6.22;;
83247;SDS011;73465;51.038;7.052;2024-01-25T02:27:25;41.20;;;4.90;;
83247;SDS011;73465;51.038;7.052;2024-01-25T02:29:52;36.67;;;6.63;;
83247;SDS011;73465;51.038;7.052;2024-01-25T02:32:18;41.80;;;5.47;;
83247;SDS011;73465;51.038;7.052;2024-01-25T02:34:44;43.22;;;5.45;;
83247;SDS011;73465;51.038;7.052;2024-01-25T02:37:12;44.58;;;6.40;;
83247;SDS011;73465;51.038;7.052;2024-01-25T02:39:39;36.90;;;6.70;;
83247;SDS011;73465;51.038;7.052;2024-01-25T02:42:07;39.70;;;6.78;;
83247;SDS011;73465;51.038;7.052;2024-01-25T02:44:32;42.33;;;5.85;;
83247;SDS011;73465;51.038;7.052;2024-01-25T02:46:58;35.95;;;5.10;;
83247;SDS011;73465;51.038;7.052;2024-01-25T02:49:26;48.40;;;5.88;;
83247;SDS011;73465;51.038;7.052;2024-01-25T02:51:51;42.67;;;5.47;;
83247;SDS011;73465;51.038;7.052;2024-01-25T02:54:17;34.30;;;5.93;;
83247;SDS011;73465;51.038;7.052;2024-01-25T02:56:42;56.10;;;5.47;;
83247;SDS011;73465;51.038;7.052;2024-01-25T02:59:10;37.88;;;4.65;;
83247;SDS011;73465;51.038;7.052;2024-01-25T03:01:40;30.23;;;5.13;;
83247;SDS011;73465;51.038;7.052;2024-01-25T03:04:09;38.55;;;5.65;;
83247;SDS011;73465;51.038;7.052;2024-01-25T03:06:42;48.17;;;5.88;;
83247;SDS011;73465;51.038;7.052;2024-01-25T03:09:07;50.85;;;6.38;;
83247;SDS011;73465;51.038;7.052;2024-01-25T03:11:33;42.22;;;5.45;;
83247;SDS011;73465;51.038;7.052;2024-01-25T03:13:58;50.33;;;5.97;;
83247;SDS011;73465;51.038;7.052;2024-01-25T03:16:24;32.90;;;5.60;;
83247;SDS011;73465;51.038;7.052;2024-01-25T03:18:50;48.85;;;6.25;;
83247;SDS011;73465;51.038;7.052;2024-01-25T03:21:16;40.30;;;6.82;;
83247;SDS011;73465;51.038;7.052;2024-01-25T03:23:42;37.78;;;5.30;;
83247;SDS011;73465;51.038;7.052;2024-01-25T03:26:08;41.30;;;5.88;;
83247;SDS011;73465;51.038;7.052;2024-01-25T03:28:37;40.53;;;6.38;;
83247;SDS011;73465;51.038;7.052;2024-01-25T03:31:04;46.05;;;6.65;;
83247;SDS011;73465;51.038;7.052;2024-01-25T03:33:30;40.22;;;6.35;;
83247;SDS011;73465;51.038;7.052;2024-01-25T03:36:00;56.92;;;7.32;;
83247;SDS011;73465;51.038;7.052;2024-01-25T03:38:29;46.45;;;6.28;;
83247;SDS011;73465;51.038;7.052;2024-01-25T03:40:55;44.67;;;6.80;;
83247;SDS011;73465;51.038;7.052;2024-01-25T03:43:26;43.17;;;6.38;;
83247;SDS011;73465;51.038;7.052;2024-01-25T03:45:54;58.60;;;6.68;;
83247;SDS011;73465;51.038;7.052;2024-01-25T03:48:19;48.17;;;6.35;;
83247;SDS011;73465;51.038;7.052;2024-01-25T03:50:45;41.50;;;5.88;;
83247;SDS011;73465;51.038;7.052;2024-01-25T03:53:11;52.75;;;6.57;;
83247;SDS011;73465;51.038;7.052;2024-01-25T03:55:37;45.92;;;5.90;;
83247;SDS011;73465;51.038;7.052;2024-01-25T03:58:02;30.40;;;6.28;;
83247;SDS011;73465;51.038;7.052;2024-01-25T04:00:28;44.28;;;6.05;;
83247;SDS011;73465;51.038;7.052;2024-01-25T04:02:54;41.38;;;5.25;;
83247;SDS011;73465;51.038;7.052;2024-01-25T04:05:19;39.10;;;7.15;;
83247;SDS011;73465;51.038;7.052;2024-01-25T04:07:44;44.35;;;6.53;;
83247;SDS011;73465;51.038;7.052;2024-01-25T04:10:10;53.90;;;7.47;;
83247;SDS011;73465;51.038;7.052;2024-01-25T04:12:39;35.97;;;5.20;;
83247;SDS011;73465;51.038;7.052;2024-01-25T04:15:07;49.63;;;5.55;;
83247;SDS011;73465;51.038;7.052;2024-01-25T04:17:36;42.42;;;5.47;;
83247;SDS011;73465;51.038;7.052;2024-01-25T04:20:02;44.80;;;5.00;;
83247;SDS011;73465;51.038;7.052;2024-01-25T04:22:28;44.65;;;6.78;;
83247;SDS011;73465;51.038;7.052;2024-01-25T04:24:53;54.75;;;6.55;;
83247;SDS011;73465;51.038;7.052;2024-01-25T04:27:18;55.35;;;5.80;;
83247;SDS011;73465;51.038;7.052;2024-01-25T04:29:44;42.58;;;5.38;;
83247;SDS011;73465;51.038;7.052;2024-01-25T04:32:11;36.33;;;6.25;;
83247;SDS011;73465;51.038;7.052;2024-01-25T04:34:37;41.42;;;6.22;;
83247;SDS011;73465;51.038;7.052;2024-01-25T04:37:03;49.97;;;7.10;;
83247;SDS011;73465;51.038;7.052;2024-01-25T04:39:28;43.55;;;6.07;;
83247;SDS011;73465;51.038;7.052;2024-01-25T04:41:54;51.22;;;6.68;;
83247;SDS011;73465;51.038;7.052;2024-01-25T04:44:19;62.67;;;7.43;;
83247;SDS011;73465;51.038;7.052;2024-01-25T04:46:44;53.08;;;7.10;;
83247;SDS011;73465;51.038;7.052;2024-01-25T04:49:10;51.05;;;6.72;;
83247;SDS011;73465;51.038;7.052;2024-01-25T04:51:35;49.08;;;5.95;;
83247;SDS011;73465;51.038;7.052;2024-01-25T04:54:01;57.05;;;7.10;;
83247;SDS011;73465;51.038;7.052;2024-01-25T04:56:26;51.17;;;5.82;;
83247;SDS011;73465;51.038;7.052;2024-01-25T04:58:51;58.90;;;5.65;;
83247;SDS011;73465;51.038;7.052;2024-01-25T05:01:17;36.53;;;5.43;;
83247;SDS011;73465;51.038;7.052;2024-01-25T05:03:42;67.47;;;6.47;;
83247;SDS011;73465;51.038;7.052;2024-01-25T05:06:07;44.75;;;7.05;;
83247;SDS011;73465;51.038;7.052;2024-01-25T05:08:33;34.50;;;5.10;;
83247;SDS011;73465;51.038;7.052;2024-01-25T05:10:58;50.78;;;6.38;;
83247;SDS011;73465;51.038;7.052;2024-01-25T05:13:23;58.13;;;5.85;;
83247;SDS011;73465;51.038;7.052;2024-01-25T05:15:49;48.92;;;5.90;;
83247;SDS011;73465;51.038;7.052;2024-01-25T05:18:14;50.92;;;6.47;;
83247;SDS011;73465;51.038;7.052;2024-01-25T05:20:40;46.65;;;6.45;;
83247;SDS011;73465;51.038;7.052;2024-01-25T05:23:05;47.72;;;5.80;;
83247;SDS011;73465;51.038;7.052;2024-01-25T05:25:31;34.53;;;6.50;;
83247;SDS011;73465;51.038;7.052;2024-01-25T05:27:56;50.40;;;6.05;;
83247;SDS011;73465;51.038;7.052;2024-01-25T05:30:22;37.17;;;5.93;;
83247;SDS011;73465;51.038;7.052;2024-01-25T05:32:48;45.15;;;5.68;;
83247;SDS011;73465;51.038;7.052;2024-01-25T05:35:14;45.50;;;7.50;;
83247;SDS011;73465;51.038;7.052;2024-01-25T05:37:40;50.10;;;7.22;;
83247;SDS011;73465;51.038;7.052;2024-01-25T05:40:05;47.58;;;6.85;;
83247;SDS011;73465;51.038;7.052;2024-01-25T05:42:31;48.30;;;6.30;;
83247;SDS011;73465;51.038;7.052;2024-01-25T05:44:57;60.78;;;7.38;;
83247;SDS011;73465;51.038;7.052;2024-01-25T05:47:22;53.47;;;9.35;;
83247;SDS011;73465;51.038;7.052;2024-01-25T05:49:48;47.15;;;7.38;;
83247;SDS011;73465;51.038;7.052;2024-01-25T05:52:13;46.72;;;6.43;;
83247;SDS011;73465;51.038;7.052;2024-01-25T05:54:39;37.10;;;5.93;;
83247;SDS011;73465;51.038;7.052;2024-01-25T05:57:04;42.15;;;5.82;;
83247;SDS011;73465;51.038;7.052;2024-01-25T05:59:31;38.05;;;7.20;;
83247;SDS011;73465;51.038;7.052;2024-01-25T06:01:57;40.55;;;6.30;;
83247;SDS011;73465;51.038;7.052;2024-01-25T06:04:22;31.42;;;6.15;;
83247;SDS011;73465;51.038;7.052;2024-01-25T06:06:47;32.63;;;5.47;;
83247;SDS011;73465;51.038;7.052;2024-01-25T06:09:13;29.33;;;5.18;;
83247;SDS011;73465;51.038;7.052;2024-01-25T06:11:43;43.38;;;6.47;;
83247;SDS011;73465;51.038;7.052;2024-01-25T06:14:09;43.10;;;6.00;;
83247;SDS011;73465;51.038;7.052;2024-01-25T06:16:34;37.67;;;6.05;;
83247;SDS011;73465;51.038;7.052;2024-01-25T06:18:59;58.90;;;6.07;;
83247;SDS011;73465;51.038;7.052;2024-01-25T06:21:26;28.17;;;5.10;;
83247;SDS011;73465;51.038;7.052;2024-01-25T06:23:52;33.10;;;4.43;;
83247;SDS011;73465;51.038;7.052;2024-01-25T06:26:17;36.55;;;5.25;;
83247;SDS011;73465;51.038;7.052;2024-01-25T06:28:43;41.13;;;4.88;;
83247;SDS011;73465;51.038;7.052;2024-01-25T06:31:08;38.83;;;5.47;;
83247;SDS011;73465;51.038;7.052;2024-01-25T06:33:33;42.92;;;5.50;;
83247;SDS011;73465;51.038;7.052;2024-01-25T06:35:59;42.22;;;5.22;;
83247;SDS011;73465;51.038;7.052;2024-01-25T06:38:25;50.40;;;5.60;;
83247;SDS011;73465;51.038;7.052;2024-01-25T06:40:50;52.33;;;6.65;;
83247;SDS011;73465;51.038;7.052;2024-01-25T06:43:16;34.83;;;5.90;;
83247;SDS011;73465;51.038;7.052;2024-01-25T06:45:41;37.35;;;5.22;;
83247;SDS011;73465;51.038;7.052;2024-01-25T06:48:07;51.60;;;5.95;;
83247;SDS011;73465;51.038;7.052;2024-01-25T06:50:33;54.33;;;5.65;;
83247;SDS011;73465;51.038;7.052;2024-01-25T06:52:59;33.40;;;5.45;;
83247;SDS011;73465;51.038;7.052;2024-01-25T06:55:24;36.50;;;6.60;;
83247;SDS011;73465;51.038;7.052;2024-01-25T06:57:49;40.90;;;6.68;;
83247;SDS011;73465;51.038;7.052;2024-01-25T07:00:15;41.13;;;7.53;;
83247;SDS011;73465;51.038;7.052;2024-01-25T07:02:41;48.58;;;7.38;;
83247;SDS011;73465;51.038;7.052;2024-01-25T07:05:07;50.17;;;6.28;;
83247;SDS011;73465;51.038;7.052;2024-01-25T07:07:33;47.45;;;6.45;;
83247;SDS011;73465;51.038;7.052;2024-01-25T07:09:58;39.75;;;5.60;;
83247;SDS011;73465;51.038;7.052;2024-01-25T07:12:24;41.05;;;6.20;;
83247;SDS011;73465;51.038;7.052;2024-01-25T07:14:49;47.80;;;5.68;;
83247;SDS011;73465;51.038;7.052;2024-01-25T07:17:14;48.63;;;5.50;;
83247;SDS011;73465;51.038;7.052;2024-01-25T07:19:40;57.40;;;7.68;;
83247;SDS011;73465;51.038;7.052;2024-01-25T07:22:05;50.03;;;6.47;;
83247;SDS011;73465;51.038;7.052;2024-01-25T07:24:31;44.33;;;6.68;;
83247;SDS011;73465;51.038;7.052;2024-01-25T07:26:56;48.67;;;7.28;;
83247;SDS011;73465;51.038;7.052;2024-01-25T07:29:22;35.13;;;5.88;;
83247;SDS011;73465;51.038;7.052;2024-01-25T07:31:47;62.63;;;6.20;;
83247;SDS011;73465;51.038;7.052;2024-01-25T07:34:13;38.22;;;5.70;;
83247;SDS011;73465;51.038;7.052;2024-01-25T07:36:38;56.53;;;6.82;;
83247;SDS011;73465;51.038;7.052;2024-01-25T07:39:04;47.50;;;6.85;;
83247;SDS011;73465;51.038;7.052;2024-01-25T07:41:29;39.70;;;7.70;;
83247;SDS011;73465;51.038;7.052;2024-01-25T07:43:54;30.23;;;6.43;;
83247;SDS011;73465;51.038;7.052;2024-01-25T07:46:20;56.53;;;7.38;;
83247;SDS011;73465;51.038;7.052;2024-01-25T07:48:47;41.10;;;6.07;;
83247;SDS011;73465;51.038;7.052;2024-01-25T07:51:14;47.03;;;5.55;;
83247;SDS011;73465;51.038;7.052;2024-01-25T07:53:39;31.50;;;6.10;;
83247;SDS011;73465;51.038;7.052;2024-01-25T07:56:08;49.55;;;6.78;;
83247;SDS011;73465;51.038;7.052;2024-01-25T07:58:35;58.03;;;7.20;;
83247;SDS011;73465;51.038;7.052;2024-01-25T08:01:02;36.45;;;5.90;;
83247;SDS011;73465;51.038;7.052;2024-01-25T08:03:29;32.08;;;5.97;;
83247;SDS011;73465;51.038;7.052;2024-01-25T08:05:54;43.10;;;7.03;;
83247;SDS011;73465;51.038;7.052;2024-01-25T08:08:19;40.53;;;5.82;;
83247;SDS011;73465;51.038;7.052;2024-01-25T08:10:45;37.35;;;6.18;;
83247;SDS011;73465;51.038;7.052;2024-01-25T08:13:10;38.75;;;5.35;;
83247;SDS011;73465;51.038;7.052;2024-01-25T08:15:36;32.97;;;4.93;;
83247;SDS011;73465;51.038;7.052;2024-01-25T08:18:02;47.53;;;6.13;;
83247;SDS011;73465;51.038;7.052;2024-01-25T08:20:27;31.10;;;4.93;;
83247;SDS011;73465;51.038;7.052;2024-01-25T08:22:53;37.97;;;6.10;;
83247;SDS011;73465;51.038;7.052;2024-01-25T08:25:18;29.10;;;6.18;;
83247;SDS011;73465;51.038;7.052;2024-01-25T08:27:45;27.60;;;5.30;;
83247;SDS011;73465;51.038;7.052;2024-01-25T08:30:10;30.80;;;4.97;;
83247;SDS011;73465;51.038;7.052;2024-01-25T08:32:36;35.00;;;5.75;;
83247;SDS011;73465;51.038;7.052;2024-01-25T08:35:01;20.63;;;5.13;;
83247;SDS011;73465;51.038;7.052;2024-01-25T08:37:27;29.90;;;5.40;;
83247;SDS011;73465;51.038;7.052;2024-01-25T08:39:52;35.78;;;5.57;;
83247;SDS011;73465;51.038;7.052;2024-01-25T08:42:17;33.13;;;5.78;;
83247;SDS011;73465;51.038;7.052;2024-01-25T08:44:43;32.38;;;5.47;;
83247;SDS011;73465;51.038;7.052;2024-01-25T08:47:14;30.40;;;6.85;;
83247;SDS011;73465;51.038;7.052;2024-01-25T08:49:42;42.30;;;8.02;;
83247;SDS011;73465;51.038;7.052;2024-01-25T08:52:08;28.48;;;5.47;;
83247;SDS011;73465;51.038;7.052;2024-01-25T08:54:33;42.08;;;5.50;;
83247;SDS011;73465;51.038;7.052;2024-01-25T08:56:59;31.65;;;6.15;;
83247;SDS011;73465;51.038;7.052;2024-01-25T08:59:24;28.25;;;4.43;;
83247;SDS011;73465;51.038;7.052;2024-01-25T09:01:50;39.38;;;6.78;;
83247;SDS011;73465;51.038;7.052;2024-01-25T09:04:15;26.05;;;6.15;;
83247;SDS011;73465;51.038;7.052;2024-01-25T09:06:40;27.65;;;5.68;;
83247;SDS011;73465;51.038;7.052;2024-01-25T09:09:09;35.75;;;7.10;;
83247;SDS011;73465;51.038;7.052;2024-01-25T09:11:35;29.95;;;5.93;;
83247;SDS011;73465;51.038;7.052;2024-01-25T09:14:01;40.50;;;6.30;;
83247;SDS011;73465;51.038;7.052;2024-01-25T09:16:26;30.00;;;5.80;;
83247;SDS011;73465;51.038;7.052;2024-01-25T09:18:52;42.03;;;7.88;;
83247;SDS011;73465;51.038;7.052;2024-01-25T09:21:17;32.08;;;6.88;;
83247;SDS011;73465;51.038;7.052;2024-01-25T09:23:44;36.42;;;7.65;;
83247;SDS011;73465;51.038;7.052;2024-01-25T09:26:10;28.70;;;7.15;;
83247;SDS011;73465;51.038;7.052;2024-01-25T09:28:35;33.10;;;7.68;;
83247;SDS011;73465;51.038;7.052;2024-01-25T09:31:00;42.55;;;8.40;;
83247;SDS011;73465;51.038;7.052;2024-01-25T09:33:26;35.25;;;7.68;;
83247;SDS011;73465;51.038;7.052;2024-01-25T09:35:51;38.63;;;7.45;;
83247;SDS011;73465;51.038;7.052;2024-01-25T09:38:16;36.15;;;7.18;;
83247;SDS011;73465;51.038;7.052;2024-01-25T09:40:45;39.25;;;7.28;;
83247;SDS011;73465;51.038;7.052;2024-01-25T09:43:11;23.52;;;6.93;;
83247;SDS011;73465;51.038;7.052;2024-01-25T09:45:37;35.05;;;6.20;;
83247;SDS011;73465;51.038;7.052;2024-01-25T09:48:02;38.97;;;7.28;;
83247;SDS011;73465;51.038;7.052;2024-01-25T09:50:30;28.58;;;6.82;;
83247;SDS011;73465;51.038;7.052;2024-01-25T09:52:58;44.85;;;7.80;;
83247;SDS011;73465;51.038;7.052;2024-01-25T09:55:25;37.45;;;7.63;;
83247;SDS011;73465;51.038;7.052;2024-01-25T09:57:53;38.00;;;7.07;;
83247;SDS011;73465;51.038;7.052;2024-01-25T10:00:22;39.83;;;7.80;;
83247;SDS011;73465;51.038;7.052;2024-01-25T10:02:49;42.53;;;9.98;;
83247;SDS011;73465;51.038;7.052;2024-01-25T10:05:15;47.28;;;9.45;;
83247;SDS011;73465;51.038;7.052;2024-01-25T10:07:42;38.60;;;9.40;;
83247;SDS011;73465;51.038;7.052;2024-01-25T10:10:10;41.97;;;9.18;;
83247;SDS011;73465;51.038;7.052;2024-01-25T10:12:37;33.47;;;8.68;;
83247;SDS011;73465;51.038;7.052;2024-01-25T10:15:03;45.38;;;9.93;;
83247;SDS011;73465;51.038;7.052;2024-01-25T10:17:30;43.95;;;10.68;;
83247;SDS011;73465;51.038;7.052;2024-01-25T10:19:57;43.95;;;10.73;;
83247;SDS011;73465;51.038;7.052;2024-01-25T10:22:22;46.53;;;10.73;;
83247;SDS011;73465;51.038;7.052;2024-01-25T10:24:48;51.22;;;11.60;;
83247;SDS011;73465;51.038;7.052;2024-01-25T10:27:18;46.72;;;11.32;;
83247;SDS011;73465;51.038;7.052;2024-01-25T10:29:44;54.75;;;12.25;;
83247;SDS011;73465;51.038;7.052;2024-01-25T10:32:09;45.78;;;12.80;;
83247;SDS011;73465;51.038;7.052;2024-01-25T10:34:39;46.67;;;11.75;;
83247;SDS011;73465;51.038;7.052;2024-01-25T10:37:05;55.90;;;13.05;;
83247;SDS011;73465;51.038;7.052;2024-01-25T10:39:32;47.40;;;11.20;;
83247;SDS011;73465;51.038;7.052;2024-01-25T10:41:58;44.03;;;11.77;;
83247;SDS011;73465;51.038;7.052;2024-01-25T10:44:24;53.85;;;12.30;;
83247;SDS011;73465;51.038;7.052;2024-01-25T10:46:52;47.15;;;11.85;;
83247;SDS011;73465;51.038;7.052;2024-01-25T10:49:19;52.83;;;12.73;;
83247;SDS011;73465;51.038;7.052;2024-01-25T10:51:44;45.78;;;10.57;;
83247;SDS011;73465;51.038;7.052;2024-01-25T10:54:11;46.08;;;12.65;;
83247;SDS011;73465;51.038;7.052;2024-01-25T10:56:46;48.13;;;13.18;;
83247;SDS011;73465;51.038;7.052;2024-01-25T10:59:15;50.65;;;11.63;;
83247;SDS011;73465;51.038;7.052;2024-01-25T11:01:44;54.80;;;12.63;;
83247;SDS011;73465;51.038;7.052;2024-01-25T11:04:16;49.72;;;11.93;;
83247;SDS011;73465;51.038;7.052;2024-01-25T11:06:47;50.95;;;12.55;;
83247;SDS011;73465;51.038;7.052;2024-01-25T11:09:16;59.42;;;12.27;;
83247;SDS011;73465;51.038;7.052;2024-01-25T11:11:46;47.15;;;11.40;;
83247;SDS011;73465;51.038;7.052;2024-01-25T11:14:13;44.42;;;11.25;;
83247;SDS011;73465;51.038;7.052;2024-01-25T11:16:39;43.50;;;10.98;;
83247;SDS011;73465;51.038;7.052;2024-01-25T11:19:15;46.40;;;12.30;;
83247;SDS011;73465;51.038;7.052;2024-01-25T11:26:48;57.30;;;11.35;;
83247;SDS011;73465;51.038;7.052;2024-01-25T11:29:18;39.25;;;9.55;;
83247;SDS011;73465;51.038;7.052;2024-01-25T11:31:45;43.22;;;9.55;;
83247;SDS011;73465;51.038;7.052;2024-01-25T11:34:12;38.55;;;8.82;;
83247;SDS011;73465;51.038;7.052;2024-01-25T11:36:38;39.35;;;8.73;;
83247;SDS011;73465;51.038;7.052;2024-01-25T11:39:04;43.55;;;8.25;;
83247;SDS011;73465;51.038;7.052;2024-01-25T11:41:31;33.53;;;6.63;;
83247;SDS011;73465;51.038;7.052;2024-01-25T11:43:59;38.30;;;7.50;;
83247;SDS011;73465;51.038;7.052;2024-01-25T11:46:24;36.97;;;8.50;;
83247;SDS011;73465;51.038;7.052;2024-01-25T11:48:50;44.05;;;7.43;;
83247;SDS011;73465;51.038;7.052;2024-01-25T11:51:16;39.33;;;7.22;;
83247;SDS011;73465;51.038;7.052;2024-01-25T11:53:42;34.08;;;7.05;;
83247;SDS011;73465;51.038;7.052;2024-01-25T11:56:09;32.60;;;7.25;;
83247;SDS011;73465;51.038;7.052;2024-01-25T11:58:37;39.72;;;8.05;;
83247;SDS011;73465;51.038;7.052;2024-01-25T12:01:04;35.03;;;7.30;;
83247;SDS011;73465;51.038;7.052;2024-01-25T12:03:32;36.90;;;7.38;;
83247;SDS011;73465;51.038;7.052;2024-01-25T12:06:00;30.88;;;6.95;;
83247;SDS011;73465;51.038;7.052;2024-01-25T12:08:26;36.85;;;7.20;;
83247;SDS011;73465;51.038;7.052;2024-01-25T12:11:01;24.10;;;6.82;;
83247;SDS011;73465;51.038;7.052;2024-01-25T12:13:39;40.28;;;6.50;;
83247;SDS011;73465;51.038;7.052;2024-01-25T12:16:06;34.38;;;7.18;;
83247;SDS011;73465;51.038;7.052;2024-01-25T12:18:33;32.30;;;6.60;;
83247;SDS011;73465;51.038;7.052;2024-01-25T12:21:00;33.83;;;7.75;;
83247;SDS011;73465;51.038;7.052;2024-01-25T12:23:34;39.80;;;7.32;;
83247;SDS011;73465;51.038;7.052;2024-01-25T12:26:04;25.45;;;6.85;;
83247;SDS011;73465;51.038;7.052;2024-01-25T12:28:33;35.28;;;6.90;;
83247;SDS011;73465;51.038;7.052;2024-01-25T12:31:02;35.63;;;6.78;;
83247;SDS011;73465;51.038;7.052;2024-01-25T12:33:29;32.38;;;7.18;;
83247;SDS011;73465;51.038;7.052;2024-01-25T12:35:54;26.75;;;6.35;;
83247;SDS011;73465;51.038;7.052;2024-01-25T12:38:23;26.40;;;6.65;;
83247;SDS011;73465;51.038;7.052;2024-01-25T12:40:49;31.58;;;6.15;;
83247;SDS011;73465;51.038;7.052;2024-01-25T12:43:15;29.27;;;5.97;;
83247;SDS011;73465;51.038;7.052;2024-01-25T12:45:41;26.60;;;6.07;;
83247;SDS011;73465;51.038;7.052;2024-01-25T12:48:07;35.53;;;6.20;;
83247;SDS011;73465;51.038;7.052;2024-01-25T12:50:34;32.28;;;5.78;;
83247;SDS011;73465;51.038;7.052;2024-01-25T12:52:59;38.10;;;5.43;;
83247;SDS011;73465;51.038;7.052;2024-01-25T12:55:26;32.35;;;5.68;;
83247;SDS011;73465;51.038;7.052;2024-01-25T12:57:52;30.38;;;5.25;;
83247;SDS011;73465;51.038;7.052;2024-01-25T13:00:17;27.08;;;6.20;;
83247;SDS011;73465;51.038;7.052;2024-01-25T13:02:43;30.17;;;6.10;;
83247;SDS011;73465;51.038;7.052;2024-01-25T13:05:08;38.05;;;6.07;;
83247;SDS011;73465;51.038;7.052;2024-01-25T13:07:33;33.97;;;5.63;;
83247;SDS011;73465;51.038;7.052;2024-01-25T13:09:59;35.15;;;6.30;;
83247;SDS011;73465;51.038;7.052;2024-01-25T13:12:24;30.00;;;5.38;;
83247;SDS011;73465;51.038;7.052;2024-01-25T13:14:49;41.58;;;5.75;;
83247;SDS011;73465;51.038;7.052;2024-01-25T13:17:14;31.17;;;6.10;;
83247;SDS011;73465;51.038;7.052;2024-01-25T13:19:40;25.95;;;5.63;;
83247;SDS011;73465;51.038;7.052;2024-01-25T13:22:05;32.58;;;5.75;;
83247;SDS011;73465;51.038;7.052;2024-01-25T13:24:33;35.47;;;6.20;;
83247;SDS011;73465;51.038;7.052;2024-01-25T13:26:58;37.53;;;5.43;;
83247;SDS011;73465;51.038;7.052;2024-01-25T13:29:23;33.10;;;6.70;;
83247;SDS011;73465;51.038;7.052;2024-01-25T13:31:49;32.17;;;5.53;;
83247;SDS011;73465;51.038;7.052;2024-01-25T13:34:14;28.48;;;5.45;;
83247;SDS011;73465;51.038;7.052;2024-01-25T13:36:40;26.67;;;5.20;;
83247;SDS011;73465;51.038;7.052;2024-01-25T13:39:05;27.23;;;4.90;;
83247;SDS011;73465;51.038;7.052;2024-01-25T13:41:30;42.13;;;5.35;;
83247;SDS011;73465;51.038;7.052;2024-01-25T13:43:55;38.10;;;5.32;;
83247;SDS011;73465;51.038;7.052;2024-01-25T13:46:21;26.70;;;5.75;;
83247;SDS011;73465;51.038;7.052;2024-01-25T13:48:46;33.63;;;5.72;;
83247;SDS011;73465;51.038;7.052;2024-01-25T13:51:12;34.78;;;4.95;;
83247;SDS011;73465;51.038;7.052;2024-01-25T13:53:37;27.83;;;5.15;;
83247;SDS011;73465;51.038;7.052;2024-01-25T13:56:03;27.85;;;5.25;;
83247;SDS011;73465;51.038;7.052;2024-01-25T13:58:28;22.60;;;4.85;;
83247;SDS011;73465;51.038;7.052;2024-01-25T14:00:54;30.17;;;4.55;;
83247;SDS011;73465;51.038;7.052;2024-01-25T14:03:19;25.83;;;4.68;;
83247;SDS011;73465;51.038;7.052;2024-01-25T14:05:45;26.90;;;5.80;;
83247;SDS011;73465;51.038;7.052;2024-01-25T14:08:12;29.38;;;4.97;;
83247;SDS011;73465;51.038;7.052;2024-01-25T14:10:37;27.98;;;4.38;;
83247;SDS011;73465;51.038;7.052;2024-01-25T14:13:02;27.25;;;5.30;;
83247;SDS011;73465;51.038;7.052;2024-01-25T14:15:28;28.85;;;5.22;;
83247;SDS011;73465;51.038;7.052;2024-01-25T14:17:53;31.17;;;4.90;;
83247;SDS011;73465;51.038;7.052;2024-01-25T14:20:19;31.83;;;5.13;;
83247;SDS011;73465;51.038;7.052;2024-01-25T14:22:44;30.55;;;5.47;;
83247;SDS011;73465;51.038;7.052;2024-01-25T14:25:09;25.30;;;5.35;;
83247;SDS011;73465;51.038;7.052;2024-01-25T14:27:35;27.92;;;4.63;;
83247;SDS011;73465;51.038;7.052;2024-01-25T14:30:01;34.00;;;5.18;;
83247;SDS011;73465;51.038;7.052;2024-01-25T14:32:28;26.73;;;5.05;;